Time;durP1;ratioP1;P1;durP2;ratioP2;P2;SDS_P1;SDS_P2;PMS_P1;PMS_P2;Temp;Humidity;BMP_temperature;BMP_pressure;BME280_temperature;BME280_humidity;BME280_pressure;Samples;Min_cycle;Max_cycle;Signal;HPM_P1;HPM_P2
2022/11/22 00:01:37;;;;;;;2.40;1.25;;;15.60;63.60;;;;;;10451305;28;20045;-54
2022/11/22 00:06:38;;;;;;;2.50;1.30;;;15.50;63.10;;;;;;10451011;28;20037;-55
2022/11/22 00:11:39;;;;;;;2.20;1.13;;;15.50;62.80;;;;;;10450628;28;20021;-55
2022/11/22 00:16:39;;;;;;;2.38;1.48;;;15.50;62.30;;;;;;10451441;28;20064;-55
2022/11/22 00:21:40;;;;;;;3.45;1.23;;;15.70;62.90;;;;;;10451560;28;20048;-56
2022/11/22 00:26:40;;;;;;;3.72;1.45;;;15.60;63.60;;;;;;10449826;28;20115;-55
2022/11/22 00:31:41;;;;;;;2.65;1.27;;;15.50;63.80;;;;;;10449790;28;20021;-56
2022/11/22 00:36:42;;;;;;;1.52;1.15;;;15.70;63.40;;;;;;10449535;28;20149;-55
2022/11/22 00:41:42;;;;;;;2.05;1.33;;;15.80;62.50;;;;;;10451017;28;20029;-55
2022/11/22 00:46:43;;;;;;;2.20;1.45;;;15.60;61.80;;;;;;10449574;28;20060;-56
2022/11/22 00:51:44;;;;;;;1.85;1.13;;;15.70;62.40;;;;;;10450060;28;20178;-54
2022/11/22 00:56:44;;;;;;;2.03;1.48;;;15.70;63.40;;;;;;10449106;28;20065;-55
2022/11/22 01:01:45;;;;;;;2.70;1.35;;;15.50;62.80;;;;;;10449325;28;20039;-54
2022/11/22 01:06:46;;;;;;;3.78;1.23;;;15.70;62.70;;;;;;10448570;28;20067;-53
2022/11/22 01:11:47;;;;;;;1.85;1.10;;;15.80;61.70;;;;;;10448952;28;20021;-54
2022/11/22 01:16:48;;;;;;;2.08;1.10;;;15.90;61.40;;;;;;10438232;28;20063;-56
2022/11/22 01:21:49;;;;;;;1.55;0.77;;;15.80;62.30;;;;;;10448465;28;20108;-54
2022/11/22 01:26:49;;;;;;;2.00;1.00;;;15.60;62.50;;;;;;10448923;28;20065;-55
2022/11/22 01:31:50;;;;;;;2.50;1.25;;;15.50;62.00;;;;;;10449401;28;20506;-53
2022/11/22 01:36:50;;;;;;;2.75;1.23;;;15.50;61.70;;;;;;10448464;28;20567;-56
2022/11/22 01:41:51;;;;;;;1.67;1.00;;;15.50;61.40;;;;;;10447784;28;20053;-55
2022/11/22 01:47:14;;;;;;;1.63;1.00;;;15.60;62.00;;;;;;10448715;28;20084;-55
2022/11/22 01:52:22;;;;;;;2.05;1.13;;;15.50;62.60;;;;;;10448535;28;20044;-54
2022/11/22 01:57:28;;;;;;;2.35;1.30;;;15.50;62.80;;;;;;10446651;28;20432;-55
2022/11/22 02:02:29;;;;;;;1.88;1.08;;;15.80;61.30;;;;;;10446863;28;20139;-55
2022/11/22 02:07:58;;;;;;;2.03;1.17;;;16.00;60.70;;;;;;10446573;28;20037;-56
2022/11/22 02:13:01;;;;;;;1.88;1.00;;;15.90;60.70;;;;;;10446122;28;20024;-54
2022/11/22 02:18:01;;;;;;;1.67;0.93;;;15.80;61.90;;;;;;10446108;28;20078;-55
2022/11/22 02:23:17;;;;;;;1.15;1.00;;;15.80;61.80;;;;;;10446456;28;20021;-55
2022/11/22 02:28:18;;;;;;;2.10;1.20;;;15.70;61.20;;;;;;10445211;28;20029;-55
2022/11/22 02:33:18;;;;;;;4.53;1.58;;;15.60;60.50;;;;;;10445051;28;20028;-57
2022/11/22 02:38:24;;;;;;;1.85;0.90;;;15.60;61.30;;;;;;10445491;28;20110;-55
2022/11/22 02:43:36;;;;;;;1.90;1.05;;;15.70;61.90;;;;;;10444976;28;20078;-54
2022/11/22 02:48:43;;;;;;;1.83;0.93;;;15.60;62.60;;;;;;10428889;28;20025;-56
2022/11/22 02:53:49;;;;;;;1.02;0.73;;;15.80;61.90;;;;;;10446242;28;20024;-55
2022/11/22 02:58:50;;;;;;;2.50;0.93;;;15.90;61.00;;;;;;10444612;28;20091;-56
2022/11/22 03:03:50;;;;;;;1.15;0.70;;;15.90;61.00;;;;;;10446348;28;20075;-54
2022/11/22 03:08:51;;;;;;;1.75;0.82;;;15.80;60.90;;;;;;10444167;28;20064;-55
2022/11/22 03:13:52;;;;;;;1.52;0.85;;;15.70;61.80;;;;;;10444202;28;20025;-54
2022/11/22 03:18:52;;;;;;;1.38;0.73;;;15.60;61.90;;;;;;10444231;28;20108;-55
2022/11/22 03:23:54;;;;;;;1.08;0.60;;;15.80;61.10;;;;;;10445428;28;20090;-54
2022/11/22 03:28:54;;;;;;;1.60;0.80;;;15.90;60.40;;;;;;10443672;28;20033;-55
2022/11/22 03:33:55;;;;;;;3.45;0.90;;;15.90;60.20;;;;;;10450086;28;20527;-56
2022/11/22 03:38:57;;;;;;;2.00;0.90;;;15.80;60.90;;;;;;10451668;28;20049;-56
2022/11/22 03:43:58;;;;;;;1.65;1.20;;;15.60;61.30;;;;;;10452243;28;20061;-57
2022/11/22 03:48:58;;;;;;;1.52;0.75;;;15.80;61.10;;;;;;10451029;28;21033;-54
2022/11/22 03:53:59;;;;;;;1.27;0.60;;;16.00;60.10;;;;;;10452690;28;20553;-56
2022/11/22 03:59:00;;;;;;;1.50;0.80;;;16.00;59.70;;;;;;10451354;28;20072;-54
2022/11/22 04:04:00;;;;;;;1.77;1.02;;;16.00;59.80;;;;;;10452932;28;20060;-55
2022/11/22 04:09:01;;;;;;;1.38;0.70;;;15.80;61.10;;;;;;10452585;28;20072;-56
2022/11/22 04:19:22;;;;;;;2.08;1.05;;;15.60;60.30;;;;;;10450810;28;20116;-54
2022/11/22 04:29:42;;;;;;;1.23;0.80;;;15.60;60.40;;;;;;10451777;28;20045;-56
2022/11/22 04:34:42;;;;;;;1.85;0.80;;;15.60;61.30;;;;;;10450232;28;20500;-55
2022/11/22 04:39:43;;;;;;;3.10;1.05;;;15.80;61.00;;;;;;10449773;28;20071;-58
2022/11/22 04:44:45;;;;;;;2.88;1.25;;;16.00;60.60;;;;;;10448690;28;20040;-54
2022/11/22 04:49:45;;;;;;;3.83;3.28;;;16.00;60.60;;;;;;10447797;28;20686;-54
2022/11/22 04:54:46;;;;;;;2.70;1.85;;;16.10;61.40;;;;;;10448611;28;20091;-54
2022/11/22 04:59:47;;;;;;;2.60;2.10;;;16.10;61.20;;;;;;10448898;28;20510;-54
2022/11/22 05:04:47;;;;;;;4.30;2.60;;;16.00;61.90;;;;;;10448122;28;20028;-53
2022/11/22 05:09:48;;;;;;;3.70;2.30;;;15.90;62.20;;;;;;10448746;28;20615;-55
2022/11/22 05:14:49;;;;;;;4.68;2.22;;;15.80;62.40;;;;;;10448063;28;20104;-52
2022/11/22 05:19:49;;;;;;;4.10;2.90;;;15.80;62.70;;;;;;10449032;28;20057;-53
2022/11/22 05:24:50;;;;;;;3.15;2.67;;;15.80;62.90;;;;;;10448461;28;20058;-55
2022/11/22 05:29:50;;;;;;;3.83;2.60;;;15.80;62.80;;;;;;10447910;28;20578;-54
2022/11/22 05:34:51;;;;;;;3.85;3.42;;;15.90;62.80;;;;;;10449242;28;20084;-55
2022/11/22 05:39:52;;;;;;;3.65;2.15;;;15.80;62.90;;;;;;10448721;28;20053;-56
2022/11/22 05:44:52;;;;;;;3.13;2.55;;;15.90;62.80;;;;;;10447081;28;20644;-55
2022/11/22 05:49:53;;;;;;;3.10;2.33;;;15.90;62.80;;;;;;10447950;28;20067;-55
2022/11/22 05:54:54;;;;;;;7.78;2.55;;;15.90;62.90;;;;;;10447122;28;20467;-53
2022/11/22 05:59:54;;;;;;;3.90;2.70;;;16.00;62.70;;;;;;10447958;28;20060;-54
2022/11/22 06:04:55;;;;;;;2.90;2.42;;;16.00;62.80;;;;;;10448095;28;20497;-52
2022/11/22 06:09:56;;;;;;;6.05;2.92;;;16.00;63.50;;;;;;10446288;28;20064;-53
2022/11/22 06:14:56;;;;;;;3.88;2.65;;;16.20;63.50;;;;;;10447318;28;20037;-54
2022/11/22 06:19:57;;;;;;;4.78;2.58;;;16.20;64.00;;;;;;10445681;28;20112;-59
2022/11/22 06:24:58;;;;;;;10.00;3.05;;;16.20;64.10;;;;;;10446557;28;20041;-55
2022/11/22 06:29:58;;;;;;;6.03;2.80;;;16.20;65.10;;;;;;10446609;28;20121;-53
2022/11/22 06:35:00;;;;;;;8.52;2.42;;;16.20;64.80;;;;;;10446618;28;20116;-54
2022/11/22 06:40:01;;;;;;;6.88;2.60;;;16.20;65.10;;;;;;10446735;28;20047;-55
2022/11/22 06:45:02;;;;;;;5.95;2.67;;;16.10;65.70;;;;;;10445425;28;20125;-55
2022/11/22 06:50:03;;;;;;;6.50;2.85;;;16.10;65.50;;;;;;10444967;28;20041;-55
2022/11/22 06:55:04;;;;;;;6.97;2.47;;;15.90;65.80;;;;;;10445417;28;20020;-54
2022/11/22 07:00:07;;;;;;;9.98;2.33;;;15.90;65.70;;;;;;10442091;28;20037;-54
2022/11/22 07:05:08;;;;;;;5.47;2.53;;;15.90;66.10;;;;;;10442283;28;20028;-59
2022/11/22 07:10:09;;;;;;;9.07;3.38;;;15.80;66.30;;;;;;10450221;28;20029;-57
2022/11/22 07:15:10;;;;;;;12.32;2.42;;;15.80;66.40;;;;;;10485598;28;20032;-57
2022/11/22 07:20:11;;;;;;;11.15;2.80;;;15.80;66.80;;;;;;10450241;28;20099;-51
2022/11/22 07:25:11;;;;;;;10.65;3.13;;;15.90;66.20;;;;;;10449565;28;20397;-55
2022/11/22 07:30:12;;;;;;;11.48;3.22;;;15.80;66.00;;;;;;10448054;28;20445;-54
2022/11/22 07:35:13;;;;;;;10.27;2.47;;;15.80;65.90;;;;;;10451058;28;20048;-56
2022/11/22 07:40:14;;;;;;;9.18;2.55;;;15.70;65.80;;;;;;10451613;28;20104;-53
2022/11/22 07:45:15;;;;;;;7.18;1.95;;;15.70;65.80;;;;;;10452296;28;20025;-53
2022/11/22 07:50:16;;;;;;;11.13;2.10;;;15.70;65.70;;;;;;10451196;28;20056;-55
2022/11/22 07:55:17;;;;;;;10.43;1.70;;;15.80;66.10;;;;;;10451227;28;20017;-56
2022/11/22 08:00:18;;;;;;;5.72;1.95;;;15.90;65.20;;;;;;10448689;28;20050;-54
2022/11/22 08:05:20;;;;;;;6.78;2.33;;;15.90;65.40;;;;;;10450676;28;20111;-53
2022/11/22 08:10:21;;;;;;;6.50;2.10;;;15.90;65.10;;;;;;10450404;28;20025;-53
2022/11/22 08:15:22;;;;;;;7.15;1.38;;;16.00;64.80;;;;;;10449696;28;20690;-54
2022/11/22 08:20:22;;;;;;;7.53;2.25;;;16.00;64.70;;;;;;10450505;28;20104;-55
2022/11/22 08:25:23;;;;;;;5.88;1.92;;;15.90;64.80;;;;;;10466937;28;20032;-54
2022/11/22 08:30:24;;;;;;;6.90;1.45;;;15.90;64.90;;;;;;10449239;28;20144;-53
2022/11/22 08:35:25;;;;;;;5.97;1.33;;;15.90;64.50;;;;;;10449784;28;20179;-53
2022/11/22 08:40:25;;;;;;;6.75;1.50;;;16.00;64.30;;;;;;10447093;28;20021;-53
2022/11/22 08:45:26;;;;;;;3.58;1.20;;;16.00;64.40;;;;;;10447638;28;20120;-54
2022/11/22 08:50:26;;;;;;;5.07;1.38;;;15.90;64.40;;;;;;10448329;28;20120;-54
2022/11/22 08:55:27;;;;;;;4.22;1.63;;;15.90;64.70;;;;;;10449681;28;20096;-53
2022/11/22 09:00:28;;;;;;;3.55;1.02;;;15.80;64.80;;;;;;10450566;28;20035;-54
2022/11/22 09:05:30;;;;;;;3.65;1.00;;;15.80;64.80;;;;;;10450673;28;20118;-54
2022/11/22 09:10:31;;;;;;;6.32;1.30;;;15.90;64.60;;;;;;10432237;28;20028;-56
2022/11/22 09:15:31;;;;;;;3.30;1.42;;;16.00;64.20;;;;;;10448491;28;20017;-55
2022/11/22 09:20:32;;;;;;;3.72;1.50;;;16.00;64.10;;;;;;10449746;28;20105;-55
2022/11/22 09:25:33;;;;;;;4.10;1.98;;;16.00;64.20;;;;;;10449410;28;20052;-55
2022/11/22 09:30:33;;;;;;;4.05;1.10;;;15.90;64.30;;;;;;10448965;28;20684;-55
2022/11/22 09:35:34;;;;;;;6.13;1.20;;;15.90;64.50;;;;;;10447201;28;20195;-55
2022/11/22 09:40:35;;;;;;;3.45;0.82;;;15.80;64.70;;;;;;10448793;28;20056;-55
2022/11/22 09:45:36;;;;;;;2.53;0.98;;;15.80;64.70;;;;;;10447412;28;20028;-55
2022/11/22 09:51:15;;;;;;;4.00;1.00;;;15.90;64.40;;;;;;10446520;28;20033;-55
2022/11/22 09:56:18;;;;;;;4.25;0.90;;;15.90;64.30;;;;;;10431855;28;20033;-55
2022/11/22 10:01:49;;;;;;;5.80;1.20;;;15.80;64.50;;;;;;10446546;28;20029;-55
2022/11/22 10:06:54;;;;;;;;;;;15.80;64.70;;;;;;10448622;28;20415;-54
2022/11/22 10:12:07;;;;;;;3.00;1.10;;;15.80;64.90;;;;;;10445466;28;19905;-55
2022/11/22 10:17:53;;;;;;;3.35;0.80;;;15.80;64.50;;;;;;10447658;28;20025;-55
2022/11/22 10:22:56;;;;;;;5.93;0.90;;;15.90;64.50;;;;;;10446396;28;20013;-54
2022/11/22 10:28:13;;;;;;;2.13;0.80;;;16.00;64.70;;;;;;10444906;28;20025;-56
2022/11/22 10:33:35;;;;;;;2.75;0.95;;;16.10;64.50;;;;;;10443563;28;20025;-55
2022/11/22 10:38:54;;;;;;;2.90;0.90;;;16.20;64.20;;;;;;10443705;28;20033;-54
2022/11/22 10:44:43;;;;;;;3.78;1.27;;;16.10;64.60;;;;;;10445375;28;20059;-54
2022/11/22 10:50:10;;;;;;;2.30;1.30;;;16.10;64.80;;;;;;10435291;28;20083;-55
2022/11/22 10:55:34;;;;;;;3.80;0.80;;;16.10;64.80;;;;;;10445330;28;20079;-54
2022/11/22 11:00:41;;;;;;;5.45;1.17;;;16.20;64.60;;;;;;10445907;28;20017;-54
2022/11/22 11:06:01;;;;;;;7.15;1.10;;;16.20;64.50;;;;;;10424946;28;20472;-56
2022/11/22 11:11:03;;;;;;;3.75;0.90;;;16.10;64.90;;;;;;10444559;28;20446;-57
2022/11/22 11:16:09;;;;;;;6.53;1.10;;;16.00;64.90;;;;;;10441923;28;20594;-56
2022/11/22 11:21:14;;;;;;;4.82;1.10;;;16.00;65.40;;;;;;10443564;28;20115;-56
2022/11/22 11:26:30;;;;;;;6.53;1.25;;;15.90;65.50;;;;;;10443092;28;20567;-56
2022/11/22 11:31:43;;;;;;;3.55;1.33;;;16.00;70.40;;;;;;10439630;28;20037;-56
2022/11/22 11:36:44;;;;;;;4.00;0.80;;;16.00;70.20;;;;;;10443248;28;20056;-55
2022/11/22 11:41:46;;;;;;;7.63;1.20;;;16.00;67.90;;;;;;10442444;28;20561;-56
2022/11/22 11:46:47;;;;;;;3.08;0.93;;;16.00;67.60;;;;;;10443082;28;20047;-54
2022/11/22 11:52:01;;;;;;;2.33;1.05;;;16.00;68.00;;;;;;10442659;28;20017;-56
2022/11/22 11:57:06;;;;;;;4.13;0.70;;;15.90;68.50;;;;;;10450203;28;20032;-56
2022/11/22 12:02:33;;;;;;;2.47;1.05;;;15.90;68.40;;;;;;10449743;28;20025;-55
2022/11/22 12:07:34;;;;;;;2.47;0.77;;;15.80;68.60;;;;;;10450787;28;20048;-55
2022/11/22 12:12:50;;;;;;;4.35;0.90;;;15.80;68.40;;;;;;10450956;28;20017;-54
2022/11/22 12:18:36;;;;;;;3.88;0.70;;;15.80;68.20;;;;;;10434197;28;20025;-55
2022/11/22 12:24:06;;;;;;;3.13;0.70;;;15.80;68.60;;;;;;10447506;28;20029;-56
2022/11/22 12:29:11;;;;;;;3.78;0.60;;;15.80;67.70;;;;;;10450366;28;20667;-56
2022/11/22 12:34:33;;;;;;;5.05;0.80;;;15.90;67.30;;;;;;10449778;28;20048;-56
2022/11/22 12:39:36;;;;;;;2.50;0.82;;;15.90;67.20;;;;;;10449472;28;20118;-56
2022/11/22 12:44:42;;;;;;;1.48;0.70;;;15.90;67.20;;;;;;10450006;28;20109;-57
2022/11/22 12:49:48;;;;;;;1.98;0.70;;;16.00;66.80;;;;;;10449601;28;20762;-56
2022/11/22 12:55:19;;;;;;;1.55;0.88;;;16.00;66.70;;;;;;10450598;28;20029;-56
2022/11/22 13:00:25;;;;;;;3.60;0.65;;;16.00;66.80;;;;;;10450769;28;20483;-54
2022/11/22 13:06:06;;;;;;;3.28;0.88;;;15.90;67.00;;;;;;10449612;28;20488;-56
2022/11/22 13:11:29;;;;;;;;;;;15.80;67.10;;;;;;10280875;28;20726;-57
2022/11/22 13:16:30;;;;;;;7.97;1.02;;;15.80;67.20;;;;;;10424564;28;20296;-57
2022/11/22 13:22:14;;;;;;;7.18;1.48;;;15.90;67.50;;;;;;10449474;28;20452;-57
2022/11/22 13:27:43;;;;;;;12.23;2.47;;;16.10;67.30;;;;;;10449368;28;20052;-57
2022/11/22 13:32:50;;;;;;;5.60;1.27;;;16.20;67.10;;;;;;10445547;28;20021;-54
2022/11/22 13:38:03;;;;;;;11.07;1.80;;;16.20;67.30;;;;;;10448331;28;20044;-55
2022/11/22 13:43:45;;;;;;;9.13;1.45;;;16.10;67.70;;;;;;10448570;28;20025;-56
2022/11/22 13:48:52;;;;;;;8.15;1.60;;;16.10;67.30;;;;;;10448532;28;20032;-53
2022/11/22 13:54:31;;;;;;;9.40;1.73;;;16.10;67.60;;;;;;10448354;28;20431;-55
2022/11/22 13:59:32;;;;;;;16.15;2.15;;;16.00;67.70;;;;;;10448418;28;20021;-56
2022/11/22 14:04:38;;;;;;;18.15;2.63;;;15.90;67.90;;;;;;10447844;28;20108;-56
2022/11/22 14:09:56;;;;;;;18.13;2.45;;;15.90;68.20;;;;;;10447844;28;20571;-55
2022/11/22 14:15:36;;;;;;;20.90;3.63;;;15.90;68.20;;;;;;10445590;28;20070;-55
2022/11/22 14:21:12;;;;;;;25.93;4.93;;;15.80;68.40;;;;;;10447180;28;20032;-54
2022/11/22 14:26:30;;;;;;;19.95;3.35;;;15.80;68.80;;;;;;10447281;28;20022;-56
2022/11/22 14:31:34;;;;;;;16.98;3.53;;;15.70;68.70;;;;;;10445584;28;20032;-54
2022/11/22 14:36:35;;;;;;;15.07;2.60;;;15.80;68.80;;;;;;10446282;28;20071;-55
2022/11/22 14:41:41;;;;;;;24.65;4.60;;;16.00;68.30;;;;;;10446174;28;20175;-54
2022/11/22 14:47:01;;;;;;;22.65;3.67;;;16.10;67.70;;;;;;10445827;28;20651;-55
2022/11/22 14:52:04;;;;;;;20.55;4.03;;;16.10;67.70;;;;;;10441667;28;20041;-57
2022/11/22 14:57:06;;;;;;;21.85;3.67;;;16.00;67.70;;;;;;10445289;28;20104;-57
2022/11/22 15:02:32;;;;;;;20.67;4.20;;;16.00;67.90;;;;;;10445077;28;20503;-53
2022/11/22 15:07:41;;;;;;;30.50;4.72;;;15.80;68.70;;;;;;10446199;28;20033;-57
2022/11/22 15:13:39;;;;;;;50.03;6.47;;;15.90;68.20;;;;;;10446117;28;20025;-54
2022/11/22 15:18:51;;;;;;;31.75;6.30;;;15.80;68.70;;;;;;10444951;28;20095;-56
2022/11/22 15:23:53;;;;;;;37.67;5.80;;;16.10;69.50;;;;;;10446204;28;20499;-57
2022/11/22 15:28:57;;;;;;;25.08;5.70;;;16.10;68.90;;;;;;10447877;28;20037;-55
2022/11/22 15:33:58;;;;;;;38.45;6.45;;;15.90;69.20;;;;;;10452435;28;20094;-54
2022/11/22 15:38:59;;;;;;;29.98;6.00;;;15.80;69.20;;;;;;10452147;28;20017;-56
2022/11/22 15:44:06;;;;;;;35.15;5.45;;;15.90;69.80;;;;;;10451939;28;20025;-56
2022/11/22 15:49:14;;;;;;;30.80;5.55;;;15.80;69.90;;;;;;10451198;28;20029;-56
2022/11/22 15:54:19;;;;;;;25.55;6.50;;;15.80;70.10;;;;;;10448437;28;20021;-54
2022/11/22 15:59:29;;;;;;;28.30;4.72;;;15.70;69.70;;;;;;10446130;28;20408;-56
2022/11/22 16:04:35;;;;;;;25.45;3.75;;;15.70;69.70;;;;;;10450978;28;20460;-55
2022/11/22 16:09:37;;;;;;;20.70;3.55;;;15.60;69.60;;;;;;10451052;28;20044;-56
2022/11/22 16:14:48;;;;;;;22.45;3.95;;;15.60;69.30;;;;;;10450963;28;20029;-55
2022/11/22 16:19:49;;;;;;;26.13;4.43;;;15.70;69.10;;;;;;10433868;28;20605;-57
2022/11/22 16:24:49;;;;;;;13.00;2.78;;;15.80;68.80;;;;;;10450020;28;20024;-56
2022/11/22 16:29:51;;;;;;;15.90;3.00;;;15.90;68.20;;;;;;10449851;28;20064;-53
2022/11/22 16:34:51;;;;;;;21.50;3.95;;;16.40;67.20;;;;;;10450570;28;20484;-55
2022/11/22 16:39:53;;;;;;;12.52;2.58;;;16.80;65.80;;;;;;10448745;28;20496;-54
2022/11/22 16:44:55;;;;;;;17.75;3.63;;;16.90;65.30;;;;;;10449496;28;20029;-56
2022/11/22 16:49:56;;;;;;;11.68;2.17;;;17.00;64.90;;;;;;10449658;28;20602;-55
2022/11/22 16:54:57;;;;;;;11.90;3.45;;;17.20;64.40;;;;;;10450065;28;20555;-54
2022/11/22 16:59:57;;;;;;;11.52;1.95;;;17.30;64.80;;;;;;10448815;28;20027;-56
2022/11/22 17:04:58;;;;;;;13.30;2.38;;;17.30;67.10;;;;;;10449781;28;20602;-54
2022/11/22 17:09:59;;;;;;;9.43;2.63;;;17.30;67.60;;;;;;10449589;28;20083;-55
2022/11/22 17:14:59;;;;;;;12.27;2.53;;;17.40;67.50;;;;;;10447029;28;20500;-55
2022/11/22 17:20:00;;;;;;;36.30;14.00;;;17.40;67.40;;;;;;10445506;28;20017;-55
2022/11/22 17:25:01;;;;;;;37.60;15.20;;;17.40;69.00;;;;;;10448794;28;20035;-54
2022/11/22 17:30:01;;;;;;;36.53;13.10;;;17.40;71.30;;;;;;10447753;28;20470;-56
2022/11/22 17:35:02;;;;;;;24.60;11.10;;;17.40;71.10;;;;;;10448528;28;20045;-55
2022/11/22 17:40:04;;;;;;;27.73;8.68;;;17.50;68.00;;;;;;10449310;28;20032;-56
2022/11/22 17:45:05;;;;;;;25.20;8.88;;;17.40;66.90;;;;;;10448037;28;20028;-57
2022/11/22 17:50:07;;;;;;;22.17;8.98;;;17.50;67.40;;;;;;10448793;28;20040;-56
2022/11/22 17:55:08;;;;;;;25.05;9.18;;;17.50;67.60;;;;;;10447785;28;20036;-56
2022/11/22 18:00:09;;;;;;;22.38;8.15;;;17.40;67.60;;;;;;10447611;28;20822;-53
2022/11/22 18:05:10;;;;;;;24.10;8.63;;;17.40;67.60;;;;;;10447789;28;20021;-56
2022/11/22 18:10:10;;;;;;;19.83;8.60;;;17.20;68.30;;;;;;10447971;28;20052;-55
2022/11/22 18:15:11;;;;;;;19.83;7.00;;;17.10;68.50;;;;;;10447833;28;20018;-56
2022/11/22 18:20:12;;;;;;;18.42;7.22;;;16.90;68.90;;;;;;10447668;28;20027;-55
2022/11/22 18:25:13;;;;;;;17.17;6.43;;;16.80;68.90;;;;;;10479829;28;20040;-54
2022/11/22 18:30:14;;;;;;;15.32;7.68;;;16.70;69.00;;;;;;10445743;28;20091;-56
2022/11/22 18:35:14;;;;;;;14.38;5.63;;;16.60;69.20;;;;;;10446916;28;20480;-55
2022/11/22 18:40:15;;;;;;;17.20;6.70;;;16.50;69.20;;;;;;10444193;28;20061;-56
2022/11/22 18:45:17;;;;;;;16.90;5.00;;;16.40;69.40;;;;;;10444952;28;20024;-57
2022/11/22 18:50:18;;;;;;;17.33;7.22;;;16.40;69.50;;;;;;10443610;28;20033;-56
2022/11/22 18:55:19;;;;;;;15.98;6.30;;;16.30;69.60;;;;;;10411730;28;20013;-56
2022/11/22 19:00:20;;;;;;;18.55;5.53;;;16.30;69.60;;;;;;10442666;28;20422;-54
2022/11/22 19:05:21;;;;;;;16.58;5.32;;;16.20;69.80;;;;;;10444858;28;20086;-54
2022/11/22 19:10:21;;;;;;;15.50;5.22;;;16.20;70.00;;;;;;10445566;28;20058;-55
2022/11/22 19:15:22;;;;;;;10.18;4.70;;;16.00;70.10;;;;;;10444577;28;20060;-55
2022/11/22 19:20:23;;;;;;;9.68;4.07;;;16.00;70.40;;;;;;10446100;28;20881;-55
2022/11/22 19:25:23;;;;;;;17.48;4.45;;;16.10;70.00;;;;;;10443929;28;20056;-54
2022/11/22 19:30:25;;;;;;;15.02;4.57;;;16.10;69.90;;;;;;10441745;28;20121;-55
2022/11/22 19:35:26;;;;;;;10.98;4.55;;;16.10;70.00;;;;;;10444700;28;20041;-55
2022/11/22 19:40:27;;;;;;;12.95;4.72;;;16.10;70.30;;;;;;10444993;28;20032;-56
2022/11/22 19:45:28;;;;;;;8.23;3.65;;;16.10;70.40;;;;;;10444417;28;20099;-56
2022/11/22 19:50:28;;;;;;;9.40;2.85;;;16.10;70.60;;;;;;10443767;28;20057;-53
2022/11/22 19:55:31;;;;;;;9.25;3.53;;;16.00;70.80;;;;;;10444098;28;20067;-56
2022/11/22 20:00:32;;;;;;;10.88;4.32;;;16.00;70.80;;;;;;10442611;28;20067;-56
2022/11/22 20:05:33;;;;;;;7.35;3.70;;;15.90;70.70;;;;;;10443819;28;20526;-54
2022/11/22 20:10:34;;;;;;;9.20;3.25;;;15.90;70.90;;;;;;10445118;28;20488;-55
2022/11/22 20:15:34;;;;;;;9.15;3.10;;;15.90;71.50;;;;;;10446369;28;20715;-56
2022/11/22 20:20:35;;;;;;;10.77;3.65;;;16.00;71.00;;;;;;10448811;28;20765;-54
2022/11/22 20:25:39;;;;;;;10.27;3.25;;;15.90;71.10;;;;;;10451120;28;20461;-55
2022/11/22 20:30:40;;;;;;;6.50;3.40;;;15.80;71.30;;;;;;10445371;28;20124;-55
2022/11/22 20:35:41;;;;;;;9.23;2.75;;;15.70;71.30;;;;;;10449104;28;20496;-56
2022/11/22 20:40:42;;;;;;;6.05;2.20;;;15.60;71.40;;;;;;10448219;28;20364;-54
2022/11/22 20:45:42;;;;;;;10.48;2.92;;;15.60;71.50;;;;;;10449738;28;20091;-57
2022/11/22 20:50:50;;;;;;;7.05;3.75;;;15.60;71.60;;;;;;10450670;28;20114;-54
2022/11/22 20:55:50;;;;;;;7.38;3.10;;;15.60;71.10;;;;;;10449696;28;20021;-56
2022/11/22 21:00:52;;;;;;;6.00;2.15;;;15.70;70.80;;;;;;10450899;28;20057;-55
2022/11/22 21:05:54;;;;;;;8.88;2.55;;;15.80;70.60;;;;;;10449715;28;20078;-55
2022/11/22 21:11:06;;;;;;;4.65;1.95;;;15.80;70.20;;;;;;10450407;28;20032;-56
2022/11/22 21:16:16;;;;;;;5.70;2.78;;;15.80;70.20;;;;;;10465482;28;20114;-56
2022/11/22 21:21:21;;;;;;;6.32;2.50;;;15.90;69.70;;;;;;10448554;28;20460;-56
2022/11/22 21:26:23;;;;;;;5.20;2.50;;;16.00;69.30;;;;;;10448235;28;20115;-54
2022/11/22 21:31:25;;;;;;;7.60;2.78;;;16.00;69.30;;;;;;10431329;28;20040;-55
2022/11/22 21:36:26;;;;;;;4.47;2.47;;;16.00;69.50;;;;;;10447836;28;20037;-56
2022/11/22 21:41:26;;;;;;;5.97;2.33;;;16.00;69.10;;;;;;10448579;28;20547;-56
2022/11/22 21:46:27;;;;;;;7.00;2.33;;;16.10;68.90;;;;;;10431230;28;20045;-54
2022/11/22 21:51:28;;;;;;;6.15;2.72;;;16.00;69.10;;;;;;10447061;28;20060;-56
2022/11/22 21:56:28;;;;;;;6.95;2.08;;;16.00;69.30;;;;;;10446520;28;20052;-55
2022/11/22 22:01:30;;;;;;;3.38;1.45;;;15.90;69.40;;;;;;10447704;28;20492;-56
2022/11/22 22:06:30;;;;;;;6.72;2.30;;;15.90;69.40;;;;;;10429916;28;20357;-58
2022/11/22 22:11:31;;;;;;;6.35;1.77;;;16.00;68.90;;;;;;10445997;28;20123;-54
2022/11/22 22:16:32;;;;;;;5.75;2.10;;;16.10;68.90;;;;;;10448210;28;20028;-55
2022/11/22 22:21:33;;;;;;;5.05;2.30;;;16.00;68.90;;;;;;10447301;28;20085;-55
2022/11/22 22:26:33;;;;;;;6.38;3.50;;;16.10;68.80;;;;;;10447471;28;20640;-56
2022/11/22 22:31:34;;;;;;;5.45;1.95;;;16.10;68.60;;;;;;10445646;28;20064;-57
2022/11/22 22:36:35;;;;;;;4.13;2.00;;;16.00;68.80;;;;;;10446499;28;20045;-54
2022/11/22 22:41:35;;;;;;;4.53;2.13;;;16.00;68.90;;;;;;10445081;28;20108;-54
2022/11/22 22:46:36;;;;;;;2.38;1.35;;;16.00;68.90;;;;;;10447111;28;20491;-56
2022/11/22 22:51:37;;;;;;;6.60;2.65;;;16.10;68.50;;;;;;10446461;28;20059;-54
2022/11/22 22:56:37;;;;;;;5.07;1.52;;;16.10;68.50;;;;;;10445178;28;20053;-55
2022/11/22 23:01:38;;;;;;;2.40;1.20;;;16.00;68.70;;;;;;10446428;28;20094;-54
2022/11/22 23:06:39;;;;;;;5.03;1.58;;;16.00;68.90;;;;;;10446601;28;20060;-55
2022/11/22 23:16:58;;;;;;;6.10;2.00;;;16.10;68.40;;;;;;10446730;28;20039;-55
2022/11/22 23:21:59;;;;;;;3.53;1.77;;;16.10;68.60;;;;;;10444303;28;20029;-54
2022/11/22 23:27:00;;;;;;;3.63;1.20;;;16.00;68.80;;;;;;10444871;28;20105;-56
2022/11/22 23:32:01;;;;;;;4.07;1.50;;;16.00;68.50;;;;;;10444212;28;20029;-55
2022/11/22 23:37:02;;;;;;;3.50;1.42;;;16.10;68.40;;;;;;10444674;28;20124;-55
2022/11/22 23:42:03;;;;;;;3.13;1.60;;;16.10;68.40;;;;;;10445723;28;20025;-54
2022/11/22 23:47:03;;;;;;;2.10;1.30;;;16.00;68.50;;;;;;10444154;28;20111;-57
2022/11/22 23:52:04;;;;;;;3.25;1.50;;;16.00;68.70;;;;;;10452911;28;20033;-56
2022/11/22 23:57:05;;;;;;;3.40;1.27;;;16.10;68.40;;;;;;10453201;28;20480;-56
